sensor_id;sensor_type;location;lat;lon;timestamp;temperature;humidity
76936;DHT22;65881;52.438;16.744;2023-04-07T00:02:10;3.00;68.20
76936;DHT22;65881;52.438;16.744;2023-04-07T00:04:35;3.00;68.80
76936;DHT22;65881;52.438;16.744;2023-04-07T00:07:01;2.90;69.50
76936;DHT22;65881;52.438;16.744;2023-04-07T00:09:27;2.90;69.50
76936;DHT22;65881;52.438;16.744;2023-04-07T00:11:52;2.80;70.90
76936;DHT22;65881;52.438;16.744;2023-04-07T00:14:18;2.80;71.90
76936;DHT22;65881;52.438;16.744;2023-04-07T00:16:44;2.70;72.20
76936;DHT22;65881;52.438;16.744;2023-04-07T00:19:09;2.60;72.40
76936;DHT22;65881;52.438;16.744;2023-04-07T00:21:36;2.50;73.20
76936;DHT22;65881;52.438;16.744;2023-04-07T00:24:02;2.50;74.80
76936;DHT22;65881;52.438;16.744;2023-04-07T00:26:27;2.50;75.80
76936;DHT22;65881;52.438;16.744;2023-04-07T00:28:57;2.50;75.80
76936;DHT22;65881;52.438;16.744;2023-04-07T00:31:23;2.40;77.00
76936;DHT22;65881;52.438;16.744;2023-04-07T00:33:49;2.40;76.70
76936;DHT22;65881;52.438;16.744;2023-04-07T00:36:15;2.30;77.10
76936;DHT22;65881;52.438;16.744;2023-04-07T00:38:40;2.30;77.40
76936;DHT22;65881;52.438;16.744;2023-04-07T00:41:08;2.30;77.70
76936;DHT22;65881;52.438;16.744;2023-04-07T00:43:34;2.20;77.80
76936;DHT22;65881;52.438;16.744;2023-04-07T00:46:00;2.10;78.30
76936;DHT22;65881;52.438;16.744;2023-04-07T00:48:26;2.10;79.60
76936;DHT22;65881;52.438;16.744;2023-04-07T00:50:55;2.10;80.20
76936;DHT22;65881;52.438;16.744;2023-04-07T00:53:21;2.10;81.00
76936;DHT22;65881;52.438;16.744;2023-04-07T00:55:47;2.00;80.90
76936;DHT22;65881;52.438;16.744;2023-04-07T00:58:13;2.00;81.80
76936;DHT22;65881;52.438;16.744;2023-04-07T01:00:48;2.00;82.20
76936;DHT22;65881;52.438;16.744;2023-04-07T01:03:37;2.00;82.70
76936;DHT22;65881;52.438;16.744;2023-04-07T01:06:05;2.00;83.10
76936;DHT22;65881;52.438;16.744;2023-04-07T01:11:42;1.90;83.70
76936;DHT22;65881;52.438;16.744;2023-04-07T01:14:23;1.90;84.80
76936;DHT22;65881;52.438;16.744;2023-04-07T01:16:51;1.80;84.70
76936;DHT22;65881;52.438;16.744;2023-04-07T01:19:39;1.80;85.30
76936;DHT22;65881;52.438;16.744;2023-04-07T01:22:14;1.80;85.30
76936;DHT22;65881;52.438;16.744;2023-04-07T01:31:01;1.70;86.20
76936;DHT22;65881;52.438;16.744;2023-04-07T01:33:43;1.70;87.00
76936;DHT22;65881;52.438;16.744;2023-04-07T01:36:11;1.70;87.70
76936;DHT22;65881;52.438;16.744;2023-04-07T01:38:44;1.60;88.00
76936;DHT22;65881;52.438;16.744;2023-04-07T01:41:10;1.60;88.30
76936;DHT22;65881;52.438;16.744;2023-04-07T01:43:40;1.60;88.20
76936;DHT22;65881;52.438;16.744;2023-04-07T01:46:18;1.60;88.40
76936;DHT22;65881;52.438;16.744;2023-04-07T01:48:55;1.60;88.00
76936;DHT22;65881;52.438;16.744;2023-04-07T01:51:22;1.60;88.30
76936;DHT22;65881;52.438;16.744;2023-04-07T01:54:08;1.60;88.30
76936;DHT22;65881;52.438;16.744;2023-04-07T01:56:44;1.60;88.50
76936;DHT22;65881;52.438;16.744;2023-04-07T01:59:10;1.60;88.40
76936;DHT22;65881;52.438;16.744;2023-04-07T02:01:36;1.50;89.50
76936;DHT22;65881;52.438;16.744;2023-04-07T02:04:15;1.50;89.70
76936;DHT22;65881;52.438;16.744;2023-04-07T02:07:14;1.50;89.30
76936;DHT22;65881;52.438;16.744;2023-04-07T02:09:49;1.60;90.00
76936;DHT22;65881;52.438;16.744;2023-04-07T02:12:30;1.50;90.00
76936;DHT22;65881;52.438;16.744;2023-04-07T02:15:07;1.50;90.00
76936;DHT22;65881;52.438;16.744;2023-04-07T02:17:45;1.50;90.20
76936;DHT22;65881;52.438;16.744;2023-04-07T02:20:19;1.50;90.70
76936;DHT22;65881;52.438;16.744;2023-04-07T02:22:54;1.50;90.90
76936;DHT22;65881;52.438;16.744;2023-04-07T02:25:31;1.50;91.00
76936;DHT22;65881;52.438;16.744;2023-04-07T02:27:58;1.50;90.70
76936;DHT22;65881;52.438;16.744;2023-04-07T02:30:26;1.40;90.40
76936;DHT22;65881;52.438;16.744;2023-04-07T02:32:58;1.40;91.00
76936;DHT22;65881;52.438;16.744;2023-04-07T02:35:24;1.40;90.90
76936;DHT22;65881;52.438;16.744;2023-04-07T02:37:50;1.40;90.80
76936;DHT22;65881;52.438;16.744;2023-04-07T02:40:25;1.50;91.20
76936;DHT22;65881;52.438;16.744;2023-04-07T02:43:03;1.50;91.40
76936;DHT22;65881;52.438;16.744;2023-04-07T02:45:30;1.50;91.70
76936;DHT22;65881;52.438;16.744;2023-04-07T02:47:56;1.50;91.20
76936;DHT22;65881;52.438;16.744;2023-04-07T02:50:21;1.50;90.90
76936;DHT22;65881;52.438;16.744;2023-04-07T02:52:47;1.40;90.90
76936;DHT22;65881;52.438;16.744;2023-04-07T02:55:13;1.50;91.50
76936;DHT22;65881;52.438;16.744;2023-04-07T02:57:39;1.40;91.70
76936;DHT22;65881;52.438;16.744;2023-04-07T03:00:05;1.40;92.10
76936;DHT22;65881;52.438;16.744;2023-04-07T03:02:31;1.40;92.10
76936;DHT22;65881;52.438;16.744;2023-04-07T03:04:56;1.40;92.00
76936;DHT22;65881;52.438;16.744;2023-04-07T03:07:29;1.40;92.60
76936;DHT22;65881;52.438;16.744;2023-04-07T03:10:02;1.40;92.50
76936;DHT22;65881;52.438;16.744;2023-04-07T03:12:28;1.40;92.40
76936;DHT22;65881;52.438;16.744;2023-04-07T03:14:53;1.40;92.50
76936;DHT22;65881;52.438;16.744;2023-04-07T03:17:19;1.40;92.80
76936;DHT22;65881;52.438;16.744;2023-04-07T03:19:45;1.40;93.20
76936;DHT22;65881;52.438;16.744;2023-04-07T03:22:11;1.40;92.90
76936;DHT22;65881;52.438;16.744;2023-04-07T03:24:37;1.40;92.70
76936;DHT22;65881;52.438;16.744;2023-04-07T03:27:04;1.40;93.00
76936;DHT22;65881;52.438;16.744;2023-04-07T03:29:29;1.40;93.50
76936;DHT22;65881;52.438;16.744;2023-04-07T03:31:55;1.30;93.40
76936;DHT22;65881;52.438;16.744;2023-04-07T03:34:21;1.30;93.60
76936;DHT22;65881;52.438;16.744;2023-04-07T03:36:47;1.40;94.00
76936;DHT22;65881;52.438;16.744;2023-04-07T03:39:12;1.40;94.20
76936;DHT22;65881;52.438;16.744;2023-04-07T03:41:38;1.40;94.00
76936;DHT22;65881;52.438;16.744;2023-04-07T03:44:12;1.30;94.00
76936;DHT22;65881;52.438;16.744;2023-04-07T03:46:39;1.30;94.20
76936;DHT22;65881;52.438;16.744;2023-04-07T03:49:05;1.30;94.30
76936;DHT22;65881;52.438;16.744;2023-04-07T03:51:32;1.30;94.40
76936;DHT22;65881;52.438;16.744;2023-04-07T03:53:58;1.20;94.30
76936;DHT22;65881;52.438;16.744;2023-04-07T03:56:25;1.20;94.40
76936;DHT22;65881;52.438;16.744;2023-04-07T03:58:50;1.20;94.40
76936;DHT22;65881;52.438;16.744;2023-04-07T04:01:16;1.20;94.70
76936;DHT22;65881;52.438;16.744;2023-04-07T04:03:42;1.20;95.20
76936;DHT22;65881;52.438;16.744;2023-04-07T04:06:07;1.20;95.20
76936;DHT22;65881;52.438;16.744;2023-04-07T04:08:33;1.30;94.80
76936;DHT22;65881;52.438;16.744;2023-04-07T04:11:00;1.30;95.10
76936;DHT22;65881;52.438;16.744;2023-04-07T04:13:25;1.30;95.20
76936;DHT22;65881;52.438;16.744;2023-04-07T04:15:51;1.20;95.50
76936;DHT22;65881;52.438;16.744;2023-04-07T04:18:17;1.20;95.50
76936;DHT22;65881;52.438;16.744;2023-04-07T04:20:43;1.20;95.90
76936;DHT22;65881;52.438;16.744;2023-04-07T04:23:13;1.20;95.70
76936;DHT22;65881;52.438;16.744;2023-04-07T04:25:39;1.20;95.50
76936;DHT22;65881;52.438;16.744;2023-04-07T04:28:05;1.30;96.00
76936;DHT22;65881;52.438;16.744;2023-04-07T04:30:31;1.30;95.80
76936;DHT22;65881;52.438;16.744;2023-04-07T04:33:03;1.20;95.80
76936;DHT22;65881;52.438;16.744;2023-04-07T04:35:29;1.20;96.10
76936;DHT22;65881;52.438;16.744;2023-04-07T04:37:55;1.30;96.10
76936;DHT22;65881;52.438;16.744;2023-04-07T04:40:20;1.30;96.50
76936;DHT22;65881;52.438;16.744;2023-04-07T04:42:46;1.30;96.50
76936;DHT22;65881;52.438;16.744;2023-04-07T04:45:12;1.30;96.40
76936;DHT22;65881;52.438;16.744;2023-04-07T04:47:38;1.30;96.50
76936;DHT22;65881;52.438;16.744;2023-04-07T04:50:05;1.40;96.70
76936;DHT22;65881;52.438;16.744;2023-04-07T04:52:31;1.30;96.60
76936;DHT22;65881;52.438;16.744;2023-04-07T04:55:00;1.40;96.80
76936;DHT22;65881;52.438;16.744;2023-04-07T04:57:28;1.40;97.30
76936;DHT22;65881;52.438;16.744;2023-04-07T04:59:56;1.40;97.10
76936;DHT22;65881;52.438;16.744;2023-04-07T05:02:21;1.40;97.10
76936;DHT22;65881;52.438;16.744;2023-04-07T05:04:47;1.40;97.50
76936;DHT22;65881;52.438;16.744;2023-04-07T05:07:13;1.40;97.40
76936;DHT22;65881;52.438;16.744;2023-04-07T05:09:38;1.40;97.50
76936;DHT22;65881;52.438;16.744;2023-04-07T05:12:04;1.40;97.50
76936;DHT22;65881;52.438;16.744;2023-04-07T05:14:43;1.40;97.50
76936;DHT22;65881;52.438;16.744;2023-04-07T05:17:09;1.50;97.90
76936;DHT22;65881;52.438;16.744;2023-04-07T05:19:35;1.50;97.90
76936;DHT22;65881;52.438;16.744;2023-04-07T05:22:02;1.50;98.00
76936;DHT22;65881;52.438;16.744;2023-04-07T05:24:28;1.50;97.90
76936;DHT22;65881;52.438;16.744;2023-04-07T05:26:57;1.50;97.80
76936;DHT22;65881;52.438;16.744;2023-04-07T05:29:23;1.50;98.10
76936;DHT22;65881;52.438;16.744;2023-04-07T05:31:50;1.60;98.40
76936;DHT22;65881;52.438;16.744;2023-04-07T05:34:15;1.60;98.20
76936;DHT22;65881;52.438;16.744;2023-04-07T05:36:45;1.60;98.20
76936;DHT22;65881;52.438;16.744;2023-04-07T05:39:12;1.60;98.10
76936;DHT22;65881;52.438;16.744;2023-04-07T05:41:38;1.60;98.30
76936;DHT22;65881;52.438;16.744;2023-04-07T05:44:08;1.60;98.50
76936;DHT22;65881;52.438;16.744;2023-04-07T05:46:35;1.60;98.50
76936;DHT22;65881;52.438;16.744;2023-04-07T05:49:00;1.70;98.70
76936;DHT22;65881;52.438;16.744;2023-04-07T05:51:26;1.70;98.10
76936;DHT22;65881;52.438;16.744;2023-04-07T05:53:52;1.70;98.00
76936;DHT22;65881;52.438;16.744;2023-04-07T05:56:18;1.70;97.90
76936;DHT22;65881;52.438;16.744;2023-04-07T05:58:43;1.70;97.90
76936;DHT22;65881;52.438;16.744;2023-04-07T06:01:09;1.70;98.00
76936;DHT22;65881;52.438;16.744;2023-04-07T06:03:35;1.70;98.00
76936;DHT22;65881;52.438;16.744;2023-04-07T06:06:04;1.70;97.90
76936;DHT22;65881;52.438;16.744;2023-04-07T06:08:35;1.70;98.00
76936;DHT22;65881;52.438;16.744;2023-04-07T06:11:00;1.70;98.20
76936;DHT22;65881;52.438;16.744;2023-04-07T06:13:34;1.70;98.20
76936;DHT22;65881;52.438;16.744;2023-04-07T06:16:00;1.70;98.00
76936;DHT22;65881;52.438;16.744;2023-04-07T06:18:26;1.70;97.80
76936;DHT22;65881;52.438;16.744;2023-04-07T06:20:53;1.60;98.00
76936;DHT22;65881;52.438;16.744;2023-04-07T06:23:18;1.70;98.30
76936;DHT22;65881;52.438;16.744;2023-04-07T06:25:47;1.70;98.20
76936;DHT22;65881;52.438;16.744;2023-04-07T06:28:16;1.70;98.50
76936;DHT22;65881;52.438;16.744;2023-04-07T06:30:45;1.70;98.30
76936;DHT22;65881;52.438;16.744;2023-04-07T06:33:10;1.70;98.50
76936;DHT22;65881;52.438;16.744;2023-04-07T06:35:38;1.80;98.60
76936;DHT22;65881;52.438;16.744;2023-04-07T06:38:08;1.70;98.20
76936;DHT22;65881;52.438;16.744;2023-04-07T06:40:36;1.80;98.50
76936;DHT22;65881;52.438;16.744;2023-04-07T06:43:02;1.80;98.60
76936;DHT22;65881;52.438;16.744;2023-04-07T06:45:28;1.80;98.40
76936;DHT22;65881;52.438;16.744;2023-04-07T06:47:54;1.80;98.70
76936;DHT22;65881;52.438;16.744;2023-04-07T06:50:25;1.80;99.00
76936;DHT22;65881;52.438;16.744;2023-04-07T06:53:29;1.80;98.80
76936;DHT22;65881;52.438;16.744;2023-04-07T06:56:29;1.90;99.10
76936;DHT22;65881;52.438;16.744;2023-04-07T06:58:58;1.90;99.00
76936;DHT22;65881;52.438;16.744;2023-04-07T07:01:36;1.90;99.00
76936;DHT22;65881;52.438;16.744;2023-04-07T07:04:21;2.00;99.20
76936;DHT22;65881;52.438;16.744;2023-04-07T07:09:41;2.00;98.90
76936;DHT22;65881;52.438;16.744;2023-04-07T07:12:14;2.00;99.00
76936;DHT22;65881;52.438;16.744;2023-04-07T07:14:42;2.00;99.30
76936;DHT22;65881;52.438;16.744;2023-04-07T07:17:08;2.10;99.50
76936;DHT22;65881;52.438;16.744;2023-04-07T07:19:39;2.10;99.10
76936;DHT22;65881;52.438;16.744;2023-04-07T07:22:05;2.00;98.80
76936;DHT22;65881;52.438;16.744;2023-04-07T07:24:31;2.00;98.90
76936;DHT22;65881;52.438;16.744;2023-04-07T07:27:16;2.00;99.00
76936;DHT22;65881;52.438;16.744;2023-04-07T07:29:47;2.10;99.10
76936;DHT22;65881;52.438;16.744;2023-04-07T07:32:22;2.10;99.20
76936;DHT22;65881;52.438;16.744;2023-04-07T07:34:51;2.10;99.40
76936;DHT22;65881;52.438;16.744;2023-04-07T07:37:17;2.20;99.40
76936;DHT22;65881;52.438;16.744;2023-04-07T07:39:45;2.10;99.00
76936;DHT22;65881;52.438;16.744;2023-04-07T07:42:48;2.10;99.10
76936;DHT22;65881;52.438;16.744;2023-04-07T07:45:33;2.20;99.50
76936;DHT22;65881;52.438;16.744;2023-04-07T07:48:16;2.20;99.70
76936;DHT22;65881;52.438;16.744;2023-04-07T07:50:57;2.30;99.70
76936;DHT22;65881;52.438;16.744;2023-04-07T07:53:23;2.30;99.60
76936;DHT22;65881;52.438;16.744;2023-04-07T07:55:49;2.40;99.40
76936;DHT22;65881;52.438;16.744;2023-04-07T07:58:15;2.40;99.30
76936;DHT22;65881;52.438;16.744;2023-04-07T08:03:30;2.40;99.60
76936;DHT22;65881;52.438;16.744;2023-04-07T08:05:59;2.40;99.40
76936;DHT22;65881;52.438;16.744;2023-04-07T08:08:35;2.40;99.40
76936;DHT22;65881;52.438;16.744;2023-04-07T08:11:01;2.50;99.60
76936;DHT22;65881;52.438;16.744;2023-04-07T08:13:27;2.50;99.60
76936;DHT22;65881;52.438;16.744;2023-04-07T08:15:55;2.50;99.40
76936;DHT22;65881;52.438;16.744;2023-04-07T08:18:23;2.50;99.10
76936;DHT22;65881;52.438;16.744;2023-04-07T08:20:49;2.50;99.40
76936;DHT22;65881;52.438;16.744;2023-04-07T08:23:18;2.50;99.20
76936;DHT22;65881;52.438;16.744;2023-04-07T08:25:44;2.50;99.30
76936;DHT22;65881;52.438;16.744;2023-04-07T08:28:30;2.50;99.40
76936;DHT22;65881;52.438;16.744;2023-04-07T08:30:56;2.60;99.70
76936;DHT22;65881;52.438;16.744;2023-04-07T08:33:21;2.70;99.80
76936;DHT22;65881;52.438;16.744;2023-04-07T08:35:48;2.70;99.60
76936;DHT22;65881;52.438;16.744;2023-04-07T08:38:14;2.70;99.40
76936;DHT22;65881;52.438;16.744;2023-04-07T08:40:40;2.70;99.30
76936;DHT22;65881;52.438;16.744;2023-04-07T08:43:08;2.70;99.40
76936;DHT22;65881;52.438;16.744;2023-04-07T08:45:38;2.80;99.30
76936;DHT22;65881;52.438;16.744;2023-04-07T08:48:24;2.80;99.60
76936;DHT22;65881;52.438;16.744;2023-04-07T08:50:55;2.80;99.60
76936;DHT22;65881;52.438;16.744;2023-04-07T08:53:42;2.80;99.30
76936;DHT22;65881;52.438;16.744;2023-04-07T08:56:20;2.80;99.50
76936;DHT22;65881;52.438;16.744;2023-04-07T08:58:47;2.90;99.50
76936;DHT22;65881;52.438;16.744;2023-04-07T09:01:18;2.90;99.50
76936;DHT22;65881;52.438;16.744;2023-04-07T09:03:57;2.90;99.80
76936;DHT22;65881;52.438;16.744;2023-04-07T09:06:23;3.00;99.70
76936;DHT22;65881;52.438;16.744;2023-04-07T09:08:53;3.00;99.50
76936;DHT22;65881;52.438;16.744;2023-04-07T09:11:18;3.00;99.60
76936;DHT22;65881;52.438;16.744;2023-04-07T09:13:50;3.00;99.60
76936;DHT22;65881;52.438;16.744;2023-04-07T09:16:22;3.00;99.20
76936;DHT22;65881;52.438;16.744;2023-04-07T09:18:52;3.00;99.70
76936;DHT22;65881;52.438;16.744;2023-04-07T09:21:17;3.10;99.90
76936;DHT22;65881;52.438;16.744;2023-04-07T09:23:44;3.10;99.50
76936;DHT22;65881;52.438;16.744;2023-04-07T09:26:23;3.10;99.70
76936;DHT22;65881;52.438;16.744;2023-04-07T09:29:08;3.10;99.80
76936;DHT22;65881;52.438;16.744;2023-04-07T09:31:50;3.10;99.60
76936;DHT22;65881;52.438;16.744;2023-04-07T09:34:31;3.10;99.90
76936;DHT22;65881;52.438;16.744;2023-04-07T09:36:57;3.10;99.80
76936;DHT22;65881;52.438;16.744;2023-04-07T09:39:24;3.20;99.90
76936;DHT22;65881;52.438;16.744;2023-04-07T09:41:50;3.20;99.90
76936;DHT22;65881;52.438;16.744;2023-04-07T09:44:21;3.20;99.90
76936;DHT22;65881;52.438;16.744;2023-04-07T09:46:52;3.20;99.90
76936;DHT22;65881;52.438;16.744;2023-04-07T09:49:19;3.20;99.70
76936;DHT22;65881;52.438;16.744;2023-04-07T09:52:00;3.20;99.70
76936;DHT22;65881;52.438;16.744;2023-04-07T09:56:59;3.30;99.90
76936;DHT22;65881;52.438;16.744;2023-04-07T09:59:27;3.30;99.90
76936;DHT22;65881;52.438;16.744;2023-04-07T10:01:54;3.30;99.90
76936;DHT22;65881;52.438;16.744;2023-04-07T10:04:22;3.30;99.90
76936;DHT22;65881;52.438;16.744;2023-04-07T10:06:48;3.40;99.90
76936;DHT22;65881;52.438;16.744;2023-04-07T10:09:15;3.40;99.90
76936;DHT22;65881;52.438;16.744;2023-04-07T10:11:42;3.50;99.90
76936;DHT22;65881;52.438;16.744;2023-04-07T10:14:09;3.50;99.90
76936;DHT22;65881;52.438;16.744;2023-04-07T10:16:38;3.50;99.90
76936;DHT22;65881;52.438;16.744;2023-04-07T10:19:07;3.60;99.90
76936;DHT22;65881;52.438;16.744;2023-04-07T10:21:39;3.70;99.90
76936;DHT22;65881;52.438;16.744;2023-04-07T10:27:06;3.80;99.90
76936;DHT22;65881;52.438;16.744;2023-04-07T10:29:51;3.90;99.90
76936;DHT22;65881;52.438;16.744;2023-04-07T10:32:18;3.80;99.50
76936;DHT22;65881;52.438;16.744;2023-04-07T10:37:16;3.90;99.70
76936;DHT22;65881;52.438;16.744;2023-04-07T10:39:45;3.90;99.60
76936;DHT22;65881;52.438;16.744;2023-04-07T10:42:50;3.90;99.10
76936;DHT22;65881;52.438;16.744;2023-04-07T10:45:16;3.90;99.50
76936;DHT22;65881;52.438;16.744;2023-04-07T10:50:23;4.10;99.50
76936;DHT22;65881;52.438;16.744;2023-04-07T10:55:42;4.20;98.40
76936;DHT22;65881;52.438;16.744;2023-04-07T10:58:23;4.20;98.30
76936;DHT22;65881;52.438;16.744;2023-04-07T11:03:51;4.20;98.30
76936;DHT22;65881;52.438;16.744;2023-04-07T11:06:26;4.20;98.60
76936;DHT22;65881;52.438;16.744;2023-04-07T11:08:59;4.30;98.70
76936;DHT22;65881;52.438;16.744;2023-04-07T11:11:36;4.30;98.70
76936;DHT22;65881;52.438;16.744;2023-04-07T11:14:03;4.20;98.10
76936;DHT22;65881;52.438;16.744;2023-04-07T11:16:46;4.20;98.70
76936;DHT22;65881;52.438;16.744;2023-04-07T11:19:15;4.20;98.80
76936;DHT22;65881;52.438;16.744;2023-04-07T11:21:40;4.20;98.60
76936;DHT22;65881;52.438;16.744;2023-04-07T11:24:06;4.20;98.60
76936;DHT22;65881;52.438;16.744;2023-04-07T11:26:41;4.20;98.20
76936;DHT22;65881;52.438;16.744;2023-04-07T11:29:27;4.30;99.10
76936;DHT22;65881;52.438;16.744;2023-04-07T11:32:03;4.30;98.90
76936;DHT22;65881;52.438;16.744;2023-04-07T11:34:33;4.40;99.20
76936;DHT22;65881;52.438;16.744;2023-04-07T11:37:22;4.50;99.20
76936;DHT22;65881;52.438;16.744;2023-04-07T11:40:01;4.50;98.60
76936;DHT22;65881;52.438;16.744;2023-04-07T11:42:33;4.40;98.40
76936;DHT22;65881;52.438;16.744;2023-04-07T11:44:59;4.40;98.80
76936;DHT22;65881;52.438;16.744;2023-04-07T11:47:38;4.50;99.00
76936;DHT22;65881;52.438;16.744;2023-04-07T11:50:39;4.40;98.80
76936;DHT22;65881;52.438;16.744;2023-04-07T11:53:08;4.40;99.40
76936;DHT22;65881;52.438;16.744;2023-04-07T11:55:34;4.50;99.40
76936;DHT22;65881;52.438;16.744;2023-04-07T11:58:07;4.50;99.60
76936;DHT22;65881;52.438;16.744;2023-04-07T12:01:05;4.50;99.40
76936;DHT22;65881;52.438;16.744;2023-04-07T12:03:34;4.50;99.60
76936;DHT22;65881;52.438;16.744;2023-04-07T12:06:04;4.50;99.40
76936;DHT22;65881;52.438;16.744;2023-04-07T12:09:05;4.50;99.70
76936;DHT22;65881;52.438;16.744;2023-04-07T12:11:48;4.50;99.20
76936;DHT22;65881;52.438;16.744;2023-04-07T12:14:14;4.50;99.30
76936;DHT22;65881;52.438;16.744;2023-04-07T12:16:40;4.50;99.50
76936;DHT22;65881;52.438;16.744;2023-04-07T12:19:07;4.50;99.80
76936;DHT22;65881;52.438;16.744;2023-04-07T12:21:38;4.50;99.60
76936;DHT22;65881;52.438;16.744;2023-04-07T12:24:04;4.70;99.80
76936;DHT22;65881;52.438;16.744;2023-04-07T12:26:30;4.70;99.10
76936;DHT22;65881;52.438;16.744;2023-04-07T12:28:55;4.70;99.00
76936;DHT22;65881;52.438;16.744;2023-04-07T12:31:23;4.70;99.10
76936;DHT22;65881;52.438;16.744;2023-04-07T12:33:49;4.70;98.90
76936;DHT22;65881;52.438;16.744;2023-04-07T12:36:14;4.70;99.00
76936;DHT22;65881;52.438;16.744;2023-04-07T12:38:40;4.70;98.60
76936;DHT22;65881;52.438;16.744;2023-04-07T12:41:06;4.80;98.90
76936;DHT22;65881;52.438;16.744;2023-04-07T12:43:33;4.90;98.50
76936;DHT22;65881;52.438;16.744;2023-04-07T12:45:58;4.90;98.30
76936;DHT22;65881;52.438;16.744;2023-04-07T12:48:24;4.90;98.50
76936;DHT22;65881;52.438;16.744;2023-04-07T12:50:52;4.90;98.10
76936;DHT22;65881;52.438;16.744;2023-04-07T12:53:17;4.80;98.00
76936;DHT22;65881;52.438;16.744;2023-04-07T12:55:43;4.90;98.10
76936;DHT22;65881;52.438;16.744;2023-04-07T12:58:09;4.90;98.00
76936;DHT22;65881;52.438;16.744;2023-04-07T13:00:35;4.90;98.60
76936;DHT22;65881;52.438;16.744;2023-04-07T13:03:03;4.90;98.60
76936;DHT22;65881;52.438;16.744;2023-04-07T13:05:29;4.90;98.90
76936;DHT22;65881;52.438;16.744;2023-04-07T13:07:55;5.00;99.00
76936;DHT22;65881;52.438;16.744;2023-04-07T13:10:20;5.00;98.70
76936;DHT22;65881;52.438;16.744;2023-04-07T13:12:46;5.00;98.60
76936;DHT22;65881;52.438;16.744;2023-04-07T13:15:12;5.00;98.40
76936;DHT22;65881;52.438;16.744;2023-04-07T13:17:38;5.00;98.40
76936;DHT22;65881;52.438;16.744;2023-04-07T13:20:10;5.00;98.30
76936;DHT22;65881;52.438;16.744;2023-04-07T13:22:41;5.00;98.60
76936;DHT22;65881;52.438;16.744;2023-04-07T13:25:10;5.00;98.50
76936;DHT22;65881;52.438;16.744;2023-04-07T13:27:45;5.00;98.40
76936;DHT22;65881;52.438;16.744;2023-04-07T13:30:14;5.00;98.40
76936;DHT22;65881;52.438;16.744;2023-04-07T13:32:56;5.00;98.50
76936;DHT22;65881;52.438;16.744;2023-04-07T13:38:35;5.10;98.50
76936;DHT22;65881;52.438;16.744;2023-04-07T13:41:02;5.00;98.50
76936;DHT22;65881;52.438;16.744;2023-04-07T13:43:34;5.00;98.90
76936;DHT22;65881;52.438;16.744;2023-04-07T13:46:03;5.00;99.60
76936;DHT22;65881;52.438;16.744;2023-04-07T13:48:38;5.00;99.50
76936;DHT22;65881;52.438;16.744;2023-04-07T13:51:03;5.00;99.50
76936;DHT22;65881;52.438;16.744;2023-04-07T13:53:38;5.00;99.40
76936;DHT22;65881;52.438;16.744;2023-04-07T13:56:18;5.00;99.50
76936;DHT22;65881;52.438;16.744;2023-04-07T13:59:06;5.00;99.30
76936;DHT22;65881;52.438;16.744;2023-04-07T14:01:32;5.00;99.80
76936;DHT22;65881;52.438;16.744;2023-04-07T14:04:05;5.00;99.90
76936;DHT22;65881;52.438;16.744;2023-04-07T14:06:31;5.00;99.90
76936;DHT22;65881;52.438;16.744;2023-04-07T14:08:57;5.00;99.90
76936;DHT22;65881;52.438;16.744;2023-04-07T14:11:29;5.00;99.90
76936;DHT22;65881;52.438;16.744;2023-04-07T14:14:07;5.00;99.90
76936;DHT22;65881;52.438;16.744;2023-04-07T14:16:38;5.00;99.90
76936;DHT22;65881;52.438;16.744;2023-04-07T14:19:04;5.10;99.90
76936;DHT22;65881;52.438;16.744;2023-04-07T14:21:31;5.10;99.90
76936;DHT22;65881;52.438;16.744;2023-04-07T14:24:02;5.20;99.90
76936;DHT22;65881;52.438;16.744;2023-04-07T14:26:34;5.30;99.90
76936;DHT22;65881;52.438;16.744;2023-04-07T14:28:59;5.30;99.90
76936;DHT22;65881;52.438;16.744;2023-04-07T14:31:31;5.40;99.50
76936;DHT22;65881;52.438;16.744;2023-04-07T14:33:56;5.30;99.40
76936;DHT22;65881;52.438;16.744;2023-04-07T14:36:22;5.20;99.70
76936;DHT22;65881;52.438;16.744;2023-04-07T14:38:50;5.20;99.90
76936;DHT22;65881;52.438;16.744;2023-04-07T14:41:17;5.20;99.90
76936;DHT22;65881;52.438;16.744;2023-04-07T14:43:49;5.30;99.90
76936;DHT22;65881;52.438;16.744;2023-04-07T14:46:32;5.20;99.90
76936;DHT22;65881;52.438;16.744;2023-04-07T14:48:57;5.20;99.90
76936;DHT22;65881;52.438;16.744;2023-04-07T14:51:23;5.10;99.90
76936;DHT22;65881;52.438;16.744;2023-04-07T14:53:49;5.20;99.90
76936;DHT22;65881;52.438;16.744;2023-04-07T14:56:20;5.30;99.90
76936;DHT22;65881;52.438;16.744;2023-04-07T14:58:48;5.30;99.90
76936;DHT22;65881;52.438;16.744;2023-04-07T15:01:13;5.30;99.90
76936;DHT22;65881;52.438;16.744;2023-04-07T15:03:45;5.30;99.90
76936;DHT22;65881;52.438;16.744;2023-04-07T15:06:14;5.30;99.90
76936;DHT22;65881;52.438;16.744;2023-04-07T15:08:41;5.30;99.90
76936;DHT22;65881;52.438;16.744;2023-04-07T15:11:07;5.30;99.90
76936;DHT22;65881;52.438;16.744;2023-04-07T15:13:35;5.30;99.90
76936;DHT22;65881;52.438;16.744;2023-04-07T15:16:12;5.40;99.90
76936;DHT22;65881;52.438;16.744;2023-04-07T15:18:47;5.30;99.90
76936;DHT22;65881;52.438;16.744;2023-04-07T15:21:13;5.40;99.90
76936;DHT22;65881;52.438;16.744;2023-04-07T15:23:42;5.50;99.90
76936;DHT22;65881;52.438;16.744;2023-04-07T15:26:11;5.50;99.90
76936;DHT22;65881;52.438;16.744;2023-04-07T15:28:40;5.50;99.90
76936;DHT22;65881;52.438;16.744;2023-04-07T15:31:06;5.50;99.90
76936;DHT22;65881;52.438;16.744;2023-04-07T15:33:39;5.50;99.90
76936;DHT22;65881;52.438;16.744;2023-04-07T15:36:11;5.50;99.90
76936;DHT22;65881;52.438;16.744;2023-04-07T15:42:04;5.50;99.90
76936;DHT22;65881;52.438;16.744;2023-04-07T15:44:32;5.50;99.90
76936;DHT22;65881;52.438;16.744;2023-04-07T15:47:04;5.60;99.90
76936;DHT22;65881;52.438;16.744;2023-04-07T15:49:34;5.60;99.90
76936;DHT22;65881;52.438;16.744;2023-04-07T15:52:03;5.60;99.90
76936;DHT22;65881;52.438;16.744;2023-04-07T15:54:35;5.60;99.90
76936;DHT22;65881;52.438;16.744;2023-04-07T15:57:01;5.60;99.90
76936;DHT22;65881;52.438;16.744;2023-04-07T15:59:27;5.60;99.90
76936;DHT22;65881;52.438;16.744;2023-04-07T16:01:55;5.60;99.90
76936;DHT22;65881;52.438;16.744;2023-04-07T16:04:23;5.60;99.90
76936;DHT22;65881;52.438;16.744;2023-04-07T16:06:59;5.70;99.90
76936;DHT22;65881;52.438;16.744;2023-04-07T16:09:25;5.70;99.90
76936;DHT22;65881;52.438;16.744;2023-04-07T16:11:52;5.70;99.90
76936;DHT22;65881;52.438;16.744;2023-04-07T16:14:19;5.70;99.90
76936;DHT22;65881;52.438;16.744;2023-04-07T16:16:45;5.70;99.90
76936;DHT22;65881;52.438;16.744;2023-04-07T16:19:10;5.70;99.90
76936;DHT22;65881;52.438;16.744;2023-04-07T16:22:03;5.70;99.90
76936;DHT22;65881;52.438;16.744;2023-04-07T16:24:32;5.70;99.90
76936;DHT22;65881;52.438;16.744;2023-04-07T16:26:58;5.70;99.90